Aérodrome :
LOGIN :

S'inscrire | Disclaimer

   EN    FR    IT 

 










Légende :    VFR   VFR Marginal   IFR   IFR Intensif   IFR Très Intensif
Visi : 
Plafond : 
>= 8 km
>= 3000ft
5 à 8 km
1000 à 3000 ft
1500m à 5 km
500 à 1000 ft
800 à 1500m
200 à 500 ft
< 800m
< 200 ft
Symboles :   Orages  Brouillard  Fortes neiges  Fortes précipitations  Vent > 20 kt
SIGMETs :   Divers  Orages  Givrage  Turbulence  Onde Orograph.  Cendres Volcan.







- Altitude de l'aérodrome : 1260 ft
- Code IATA : LDE
- Voir les cartes d'approche


LFBT - Tarbes / Ossun

DERNIER METAR :
  • 161930Z AUTO 23007KT 190V250 9999 FEW012/// SCT036/// ///TCU 18/17 Q1021 BECMG BKN020

METARs EXPIRÉS :
  • 161900Z AUTO 23006KT 190V280 9999 BKN015/// BKN021/// OVC027/// ///TCU 19/17 Q1021 BECMG BKN020
  • 161830Z AUTO 23010KT 9999 SCT024/// BKN029/// BKN037/// ///CB 19/17 Q1021 BECMG BKN020
  • 161800Z AUTO 24008KT 9999 BKN031/// BKN039/// BKN048/// ///CB 19/17 Q1021 BECMG BKN020
  • 161730Z AUTO 23009KT 9999 FEW029/// SCT046/// OVC058/// ///CB 19/17 Q1020 BECMG BKN020
  • 161700Z AUTO 25008KT 210V280 9999 -RA FEW023/// BKN054/// BKN088/// ///CB 20/17 Q1020 TEMPO 28015G25KT 4000 SHRA BECMG BKN020

TAF TAF LFBT
Valide du 16 à 18h jusqu'au 17 à 18h UTC


161700Z 1618/1718 26010KT 9999 BKN020
BECMG 1623/1701 VRB02KT
BECMG 1708/1710 06008KT
Pas de NOTAMs connus pour ce terrain.
3 SIGMETs publiés pour la FIR Bordeaux (LFBB) :
 
Turbulence forte
LFBB SIGMET 19 VALID 162000/162200 LFPW
LFBB BORDEAUX FIR/UIR SEV TURB FCST WI N4315 E00230 - N4230 E00230 - N4245 E00200 - N4315 E00230 SFC/FL060 STNR NC=
Orages noyés dans la masse
LFBB SIGMET 18 VALID 161800/162000 LFPW
LFBB BORDEAUX FIR/UIR EMBD TS FCST WI N4630 W00015 - N4715 W00015 - N4715 E00030 - N4600 E00115 - N4545 E00000 - N4630 W00015 TOP FL330 MOV E 15KT NC=
Turbulence forte
LFBB SIGMET 16 VALID 161600/162000 LFPW
LFBB BORDEAUX FIR/UIR SEV TURB FCST WI N4315 E00245 - N4230 E00230 - N4300 E00215 - N4315 E00245 SFC/FL060 STNR NC=



MET'MAP, la Météo Aéronautique d'un coup d'oeil ! - Copyright ORBIFLY Décembre 2007 - Disclaimer

ORBIFLY MET'MAP TEAM :

Programmation & Développement : Alexandra Zaïnal
Conception & Développement : Baudouin d'Aumeries
Co-Programmation & Développement : Marc-Olivier Méhu
Soutien technique & logistique : Manuel Goepfert

Contact : metmap@orbifly.com




SOURCES & CREDITS :

   NOAA